Terminal Aerodrome Forecast
Issued by NWS

Home | Current Version | Previous Version | Text Only | Print | Product List | Glossary Off
Versions: 1 2 3 4 5 6 7 8 9 10 11 12 13 14 15 16 17 18 19 20

000
FTUS42 KMHX 222335
TAFOAJ
TAF
KOAJ 222335Z 2300/2324 04005KT P6SM VCSH OVC090
     FM230400 VRB03KT 5SM BR OVC008
     FM230900 VRB03KT 3SM BR OVC004
     FM231300 02005KT P6SM BKN015
     FM231700 36006KT P6SM VCSH BKN050
      AMD LTD TO CLD VIS AND WIND=

USA.gov is the U.S. government's official web portal to all federal, state and local government web resources and services.